Time;durP1;ratioP1;P1;durP2;ratioP2;P2;SDS_P1;SDS_P2;PMS_P1;PMS_P2;Temp;Humidity;BMP_temperature;BMP_pressure;BME280_temperature;BME280_humidity;BME280_pressure;Samples;Min_cycle;Max_cycle;Signal;HPM_P1;HPM_P2
2023/01/18 00:01:29;;;;;;;26.50;14.50;;;;;;;;;;5029620;28;20033;-77
2023/01/18 00:03:55;;;;;;;36.47;14.93;;;;;;;;;;5031181;28;20276;-77
2023/01/18 00:06:21;;;;;;;34.60;14.27;;;;;;;;;;5048115;28;20284;-77
2023/01/18 00:08:49;;;;;;;32.10;14.30;;;;;;;;;;5042204;28;20059;-76
2023/01/18 00:11:17;;;;;;;30.63;14.00;;;;;;;;;;5027933;28;20710;-78
2023/01/18 00:13:43;;;;;;;32.33;14.57;;;;;;;;;;5048752;28;20279;-76
2023/01/18 00:16:16;;;;;;;27.93;14.50;;;;;;;;;;5031274;28;20359;-77
2023/01/18 00:18:44;;;;;;;33.38;14.45;;;;;;;;;;5031173;28;20280;-77
2023/01/18 00:21:11;;;;;;;32.37;16.07;;;;;;;;;;5048604;28;20369;-76
2023/01/18 00:23:37;;;;;;;36.40;15.57;;;;;;;;;;5048679;28;20290;-75
2023/01/18 00:26:04;;;;;;;35.53;14.77;;;;;;;;;;5029975;28;20288;-76
2023/01/18 00:28:30;;;;;;;37.00;15.27;;;;;;;;;;5031556;28;20283;-77
2023/01/18 00:30:57;;;;;;;37.33;16.50;;;;;;;;;;5048866;28;20295;-76
2023/01/18 00:33:23;;;;;;;39.97;16.07;;;;;;;;;;5047938;28;20349;-77
2023/01/18 00:35:55;;;;;;;43.20;17.30;;;;;;;;;;5027738;28;20283;-78
2023/01/18 00:38:21;;;;;;;35.00;16.27;;;;;;;;;;5049291;28;20029;-75
2023/01/18 00:40:47;;;;;;;32.43;17.17;;;;;;;;;;5032439;28;20288;-77
2023/01/18 00:46:01;;;;;;;34.80;16.67;;;;;;;;;;5034897;28;20334;-77
2023/01/18 00:48:27;;;;;;;42.50;16.70;;;;;;;;;;5050099;28;20280;-76
2023/01/18 00:50:53;;;;;;;33.40;16.17;;;;;;;;;;5043144;28;20298;-77
2023/01/18 00:53:19;;;;;;;35.80;17.93;;;;;;;;;;5036603;28;20358;-77
2023/01/18 00:55:45;;;;;;;41.20;16.10;;;;;;;;;;5040774;28;20329;-77
2023/01/18 00:58:11;;;;;;;38.30;17.87;;;;;;;;;;5043681;28;20300;-78
2023/01/18 01:00:37;;;;;;;35.10;16.90;;;;;;;;;;5026871;28;21315;-76
2023/01/18 01:03:06;;;;;;;33.43;17.20;;;;;;;;;;5048021;28;20332;-76
2023/01/18 01:08:17;;;;;;;43.33;17.70;;;;;;;;;;5032213;28;20925;-78
2023/01/18 01:10:45;;;;;;;35.03;17.60;;;;;;;;;;5046607;28;20288;-77
2023/01/18 01:26:57;;;;;;;42.00;18.80;;;;;;;;;;5031809;28;20365;-76
2023/01/18 01:29:25;;;;;;;39.00;17.43;;;;;;;;;;5031151;28;20342;-76
2023/01/18 01:31:51;;;;;;;38.17;16.53;;;;;;;;;;5041409;28;20072;-77
2023/01/18 01:34:17;;;;;;;31.73;15.83;;;;;;;;;;5046986;28;20319;-77
2023/01/18 01:36:43;;;;;;;35.47;17.40;;;;;;;;;;5041067;28;20033;-77
2023/01/18 01:39:09;;;;;;;32.70;16.63;;;;;;;;;;5046496;28;20284;-77
2023/01/18 01:41:36;;;;;;;40.33;16.23;;;;;;;;;;5025740;28;20367;-75
2023/01/18 01:44:20;;;;;;;46.27;17.00;;;;;;;;;;5026871;28;20276;-75
2023/01/18 01:46:52;;;;;;;39.60;19.37;;;;;;;;;;5047315;28;20288;-77
2023/01/18 01:49:31;;;;;;;41.38;17.88;;;;;;;;;;5025891;28;20283;-75
2023/01/18 01:52:03;;;;;;;39.07;18.30;;;;;;;;;;5024955;28;20057;-76
2023/01/18 01:54:32;;;;;;;32.90;16.83;;;;;;;;;;5046866;28;20287;-76
2023/01/18 01:57:04;;;;;;;33.73;15.80;;;;;;;;;;5046367;28;20719;-77
2023/01/18 01:59:31;;;;;;;38.55;16.75;;;;;;;;;;5023740;28;20308;-75
2023/01/18 02:01:57;;;;;;;35.53;16.70;;;;;;;;;;5031980;28;20037;-76
2023/01/18 02:04:23;;;;;;;34.40;17.80;;;;;;;;;;5046887;28;20284;-77
2023/01/18 02:06:50;;;;;;;32.97;17.33;;;;;;;;;;5040166;28;20272;-76
2023/01/18 02:09:16;;;;;;;34.03;16.57;;;;;;;;;;5023430;28;20276;-76
2023/01/18 02:11:43;;;;;;;42.63;17.23;;;;;;;;;;5046039;28;20310;-75
2023/01/18 02:14:10;;;;;;;30.93;17.20;;;;;;;;;;5046794;28;20299;-77
2023/01/18 02:16:45;;;;;;;31.37;16.27;;;;;;;;;;5045642;28;20272;-76
2023/01/18 02:19:30;;;;;;;44.27;16.97;;;;;;;;;;5025352;28;20366;-77
2023/01/18 02:22:15;;;;;;;38.03;16.67;;;;;;;;;;5024425;28;20985;-76
2023/01/18 02:25:09;;;;;;;39.33;16.40;;;;;;;;;;5046169;28;20272;-77
2023/01/18 02:27:56;;;;;;;39.73;16.63;;;;;;;;;;5024638;28;20330;-77
2023/01/18 02:30:28;;;;;;;36.90;16.97;;;;;;;;;;5022554;28;20291;-76
2023/01/18 02:32:58;;;;;;;37.75;17.95;;;;;;;;;;5045882;28;21874;-76
2023/01/18 02:35:27;;;;;;;31.73;16.40;;;;;;;;;;5030402;28;20037;-74
2023/01/18 02:37:53;;;;;;;38.00;17.47;;;;;;;;;;5030258;28;20264;-77
2023/01/18 02:40:23;;;;;;;36.33;16.27;;;;;;;;;;5025242;28;20276;-76
2023/01/18 02:48:22;;;;;;;31.80;15.87;;;;;;;;;;5030108;28;20283;-76
2023/01/18 02:50:49;;;;;;;34.47;16.13;;;;;;;;;;5039714;28;20292;-77
2023/01/18 02:53:15;;;;;;;37.93;16.93;;;;;;;;;;5040805;28;20272;-75
2023/01/18 02:55:54;;;;;;;36.07;17.73;;;;;;;;;;5045913;28;20291;-77
2023/01/18 02:58:27;;;;;;;34.80;17.40;;;;;;;;;;5025654;28;21291;-77
2023/01/18 03:00:59;;;;;;;50.17;18.60;;;;;;;;;;5045485;28;20280;-75
2023/01/18 03:03:28;;;;;;;35.53;16.73;;;;;;;;;;5044908;28;20284;-76
2023/01/18 03:05:57;;;;;;;37.23;15.50;;;;;;;;;;5029355;28;20026;-75
2023/01/18 03:08:27;;;;;;;28.43;15.37;;;;;;;;;;5037527;28;21035;-77
2023/01/18 03:11:02;;;;;;;34.43;16.17;;;;;;;;;;5025173;28;20307;-75
2023/01/18 03:13:31;;;;;;;36.77;17.30;;;;;;;;;;5029591;28;20276;-75
2023/01/18 03:16:03;;;;;;;40.37;18.10;;;;;;;;;;5045611;28;20268;-76
2023/01/18 03:18:35;;;;;;;32.30;16.52;;;;;;;;;;5027974;28;20271;-76
2023/01/18 03:21:07;;;;;;;37.10;16.70;;;;;;;;;;5029218;28;20267;-76
2023/01/18 03:23:37;;;;;;;54.13;25.20;;;;;;;;;;5024452;28;20091;-77
2023/01/18 03:26:13;;;;;;;37.43;18.63;;;;;;;;;;5048887;28;20645;-74
2023/01/18 03:34:38;;;;;;;35.63;16.10;;;;;;;;;;5029161;28;20322;-76
2023/01/18 03:37:07;;;;;;;37.23;17.87;;;;;;;;;;5025080;28;20422;-76
2023/01/18 03:39:41;;;;;;;44.17;19.47;;;;;;;;;;5041611;28;20311;-76
2023/01/18 03:42:18;;;;;;;38.23;17.77;;;;;;;;;;5039882;28;20348;-76
2023/01/18 03:44:50;;;;;;;38.57;16.83;;;;;;;;;;5031295;28;20268;-75
2023/01/18 03:47:16;;;;;;;36.60;16.83;;;;;;;;;;5047471;28;20344;-75
2023/01/18 03:49:42;;;;;;;36.33;17.07;;;;;;;;;;5040009;28;20296;-76
2023/01/18 03:52:14;;;;;;;40.17;15.07;;;;;;;;;;5028906;28;20268;-75
2023/01/18 03:54:43;;;;;;;26.05;14.80;;;;;;;;;;5023230;28;20268;-77
2023/01/18 03:57:15;;;;;;;35.07;15.13;;;;;;;;;;5044963;28;20025;-75
2023/01/18 03:59:43;;;;;;;36.27;15.07;;;;;;;;;;5045190;28;20286;-75
2023/01/18 04:02:09;;;;;;;33.10;15.57;;;;;;;;;;5044897;28;20307;-76
2023/01/18 04:04:35;;;;;;;38.43;16.20;;;;;;;;;;5029075;28;20284;-77
2023/01/18 04:07:01;;;;;;;31.63;16.27;;;;;;;;;;5028319;28;20276;-75
2023/01/18 04:09:28;;;;;;;29.77;15.80;;;;;;;;;;5044567;28;20611;-76
2023/01/18 04:11:53;;;;;;;34.53;16.53;;;;;;;;;;5043734;28;20298;-75
2023/01/18 04:14:19;;;;;;;38.83;16.63;;;;;;;;;;5028932;28;20284;-76
2023/01/18 04:16:45;;;;;;;32.37;15.00;;;;;;;;;;5040348;28;20516;-75
2023/01/18 04:19:11;;;;;;;34.63;15.93;;;;;;;;;;5045068;28;20749;-77
2023/01/18 04:21:37;;;;;;;36.70;17.67;;;;;;;;;;5022602;28;20179;-75
2023/01/18 04:24:04;;;;;;;36.53;17.53;;;;;;;;;;5038443;28;20438;-75
2023/01/18 04:26:32;;;;;;;36.50;17.27;;;;;;;;;;5038718;28;20068;-75
2023/01/18 04:28:58;;;;;;;37.50;16.87;;;;;;;;;;5040034;28;20311;-76
2023/01/18 04:31:24;;;;;;;38.27;17.07;;;;;;;;;;5032083;28;21201;-76
2023/01/18 04:33:50;;;;;;;33.10;16.47;;;;;;;;;;5047622;28;20055;-76
2023/01/18 04:36:21;;;;;;;33.20;15.70;;;;;;;;;;5032157;28;20079;-75
2023/01/18 04:38:47;;;;;;;30.13;15.53;;;;;;;;;;5041318;28;20276;-76
2023/01/18 04:41:13;;;;;;;35.40;16.57;;;;;;;;;;5026004;28;20359;-76
2023/01/18 04:43:39;;;;;;;31.37;15.73;;;;;;;;;;5047934;28;20363;-76
2023/01/18 04:46:05;;;;;;;59.73;29.97;;;;;;;;;;5048322;28;20347;-76
2023/01/18 04:48:33;;;;;;;47.90;20.20;;;;;;;;;;5026659;28;20099;-76
2023/01/18 04:50:59;;;;;;;45.03;19.27;;;;;;;;;;5047523;28;20112;-76
2023/01/18 04:53:25;;;;;;;40.43;18.30;;;;;;;;;;5048382;28;20425;-75
2023/01/18 04:55:51;;;;;;;47.47;17.77;;;;;;;;;;5031982;28;20030;-76
2023/01/18 04:58:17;;;;;;;41.30;19.10;;;;;;;;;;5048148;28;20728;-76
2023/01/18 05:00:43;;;;;;;41.90;18.23;;;;;;;;;;5047168;28;20037;-76
2023/01/18 05:03:10;;;;;;;39.33;18.13;;;;;;;;;;5027660;28;22021;-75
2023/01/18 05:05:36;;;;;;;42.13;21.23;;;;;;;;;;5046846;28;20351;-76
2023/01/18 05:08:02;;;;;;;41.80;18.13;;;;;;;;;;5048389;28;20371;-76
2023/01/18 05:10:28;;;;;;;32.67;17.73;;;;;;;;;;5042933;28;20288;-76
2023/01/18 05:12:54;;;;;;;48.57;20.13;;;;;;;;;;5032971;28;20304;-76
2023/01/18 05:15:20;;;;;;;56.13;22.30;;;;;;;;;;5031664;28;20776;-75
2023/01/18 05:17:46;;;;;;;42.40;21.17;;;;;;;;;;5039814;28;20112;-76
2023/01/18 05:20:12;;;;;;;35.17;17.40;;;;;;;;;;5041179;28;20351;-76
2023/01/18 05:22:38;;;;;;;41.77;19.40;;;;;;;;;;5042344;28;20124;-77
2023/01/18 05:25:05;;;;;;;49.80;19.50;;;;;;;;;;5032387;28;20835;-76
2023/01/18 05:27:32;;;;;;;49.70;19.40;;;;;;;;;;5026815;28;20160;-77
2023/01/18 05:29:58;;;;;;;35.47;17.77;;;;;;;;;;5024880;28;20288;-76
2023/01/18 05:32:24;;;;;;;42.10;16.87;;;;;;;;;;5041535;28;20339;-75
2023/01/18 05:34:50;;;;;;;40.00;17.03;;;;;;;;;;5038800;28;20764;-75
2023/01/18 05:37:16;;;;;;;34.97;16.20;;;;;;;;;;5047591;28;20294;-75
2023/01/18 05:39:42;;;;;;;32.20;17.23;;;;;;;;;;5046797;28;20617;-76
2023/01/18 05:42:08;;;;;;;38.37;18.07;;;;;;;;;;5046258;28;20037;-76
2023/01/18 05:44:34;;;;;;;36.17;17.03;;;;;;;;;;5041806;28;20646;-76
2023/01/18 05:47:00;;;;;;;39.60;16.40;;;;;;;;;;5031881;28;20376;-75
2023/01/18 05:49:28;;;;;;;34.73;16.47;;;;;;;;;;5042037;28;20295;-76
2023/01/18 05:51:54;;;;;;;47.50;16.87;;;;;;;;;;5046446;28;22065;-76
2023/01/18 05:54:20;;;;;;;35.70;15.47;;;;;;;;;;5025309;28;20300;-76
2023/01/18 05:56:46;;;;;;;39.83;16.50;;;;;;;;;;5030547;28;20883;-75
2023/01/18 05:59:14;;;;;;;33.70;15.83;;;;;;;;;;5046550;28;20112;-76
2023/01/18 06:01:40;;;;;;;36.03;16.97;;;;;;;;;;5030945;28;20268;-75
2023/01/18 06:04:06;;;;;;;33.33;15.73;;;;;;;;;;5046369;28;20297;-75
2023/01/18 06:06:32;;;;;;;42.20;16.27;;;;;;;;;;5046764;28;20338;-75
2023/01/18 06:09:00;;;;;;;37.83;17.57;;;;;;;;;;5030284;28;20732;-76
2023/01/18 06:11:26;;;;;;;43.10;17.53;;;;;;;;;;5045397;28;20772;-76
2023/01/18 06:13:52;;;;;;;39.13;17.77;;;;;;;;;;5046553;28;20268;-76
2023/01/18 06:16:20;;;;;;;45.00;18.77;;;;;;;;;;5030024;28;20885;-76
2023/01/18 06:18:46;;;;;;;44.03;19.00;;;;;;;;;;5041948;28;20021;-76
2023/01/18 06:21:12;;;;;;;39.70;18.30;;;;;;;;;;5031941;28;20357;-75
2023/01/18 06:23:38;;;;;;;41.60;17.93;;;;;;;;;;5028527;28;20121;-76
2023/01/18 06:26:04;;;;;;;44.30;17.83;;;;;;;;;;5043350;28;20052;-76
2023/01/18 06:28:30;;;;;;;39.43;18.53;;;;;;;;;;5023910;28;20279;-76
2023/01/18 06:30:56;;;;;;;32.97;17.50;;;;;;;;;;5022950;28;20300;-76
2023/01/18 06:33:23;;;;;;;38.97;17.93;;;;;;;;;;5047837;28;20025;-76
2023/01/18 06:35:49;;;;;;;44.20;16.80;;;;;;;;;;5025653;28;20304;-76
2023/01/18 06:38:15;;;;;;;42.13;17.33;;;;;;;;;;5050088;28;20775;-75
2023/01/18 06:40:41;;;;;;;46.03;18.60;;;;;;;;;;5025974;28;20037;-76
2023/01/18 06:43:09;;;;;;;38.73;18.07;;;;;;;;;;5031777;28;20272;-76
2023/01/18 06:45:35;;;;;;;41.33;16.93;;;;;;;;;;5027039;28;20276;-76
2023/01/18 06:48:01;;;;;;;40.93;18.83;;;;;;;;;;5030799;28;21242;-75
2023/01/18 06:50:27;;;;;;;51.03;20.13;;;;;;;;;;5041787;28;20296;-76
2023/01/18 06:52:54;;;;;;;46.87;19.73;;;;;;;;;;5024487;28;20026;-75
2023/01/18 06:55:22;;;;;;;44.83;19.83;;;;;;;;;;5028303;28;20283;-76
2023/01/18 06:57:47;;;;;;;51.70;21.50;;;;;;;;;;5026602;28;20272;-76
2023/01/18 07:00:15;;;;;;;45.90;19.10;;;;;;;;;;5029476;28;20363;-76
2023/01/18 07:02:41;;;;;;;42.67;18.30;;;;;;;;;;5046890;28;20041;-76
2023/01/18 07:05:10;;;;;;;36.60;17.40;;;;;;;;;;5047320;28;20355;-75
2023/01/18 07:07:36;;;;;;;49.57;18.80;;;;;;;;;;5046616;28;20755;-76
2023/01/18 07:10:02;;;;;;;48.73;19.40;;;;;;;;;;5027670;28;20292;-76
2023/01/18 07:12:28;;;;;;;43.90;18.00;;;;;;;;;;5030693;28;20272;-75
2023/01/18 07:14:54;;;;;;;35.10;17.57;;;;;;;;;;5030731;28;20291;-76
2023/01/18 07:17:20;;;;;;;43.60;20.63;;;;;;;;;;5021797;28;20272;-76
2023/01/18 07:19:46;;;;;;;63.53;22.00;;;;;;;;;;5045604;28;21717;-76
2023/01/18 07:22:12;;;;;;;42.70;20.30;;;;;;;;;;5045969;28;20040;-75
2023/01/18 07:24:38;;;;;;;52.23;20.67;;;;;;;;;;5037732;28;20041;-75
2023/01/18 07:27:04;;;;;;;45.93;19.37;;;;;;;;;;5029751;28;22026;-75
2023/01/18 07:29:30;;;;;;;40.30;18.70;;;;;;;;;;5045032;28;20068;-74
2023/01/18 07:31:57;;;;;;;42.90;20.43;;;;;;;;;;5027907;28;20488;-76
2023/01/18 07:34:23;;;;;;;38.20;19.90;;;;;;;;;;5047167;28;20296;-76
2023/01/18 07:36:49;;;;;;;42.27;19.77;;;;;;;;;;5042019;28;20283;-76
2023/01/18 07:39:15;;;;;;;52.00;20.03;;;;;;;;;;5025983;28;20268;-75
2023/01/18 07:41:41;;;;;;;42.50;20.83;;;;;;;;;;5029532;28;20288;-76
2023/01/18 07:44:09;;;;;;;41.60;19.20;;;;;;;;;;5031689;28;20026;-76
2023/01/18 07:46:35;;;;;;;42.40;19.60;;;;;;;;;;5046434;28;20029;-76
2023/01/18 07:49:04;;;;;;;47.43;20.87;;;;;;;;;;5040731;28;20307;-75
2023/01/18 07:51:30;;;;;;;47.23;22.27;;;;;;;;;;5040462;28;20621;-75
2023/01/18 07:53:59;;;;;;;44.33;21.37;;;;;;;;;;5041885;28;20276;-76
2023/01/18 07:56:27;;;;;;;50.40;25.43;;;;;;;;;;5038893;28;20277;-76
2023/01/18 07:58:53;;;;;;;75.70;39.13;;;;;;;;;;5045086;28;20284;-76
2023/01/18 08:01:20;;;;;;;76.77;33.70;;;;;;;;;;5023812;28;20287;-76
2023/01/18 08:03:47;;;;;;;63.20;29.40;;;;;;;;;;5024354;28;20272;-74
2023/01/18 08:06:15;;;;;;;53.03;25.37;;;;;;;;;;5026615;28;20292;-75
2023/01/18 08:08:42;;;;;;;50.93;23.77;;;;;;;;;;5043725;28;20288;-76
2023/01/18 08:11:08;;;;;;;49.57;22.80;;;;;;;;;;5048780;28;20360;-76
2023/01/18 08:13:36;;;;;;;47.60;23.40;;;;;;;;;;5027393;28;20284;-74
2023/01/18 08:16:04;;;;;;;49.87;23.07;;;;;;;;;;5042759;28;20279;-76
2023/01/18 08:18:33;;;;;;;57.67;24.33;;;;;;;;;;5032157;28;20283;-76
2023/01/18 08:20:59;;;;;;;62.63;25.33;;;;;;;;;;5042335;28;20272;-76
2023/01/18 08:23:25;;;;;;;53.73;24.97;;;;;;;;;;5028056;28;20276;-76
2023/01/18 08:25:51;;;;;;;61.57;26.00;;;;;;;;;;5048269;28;20368;-76
2023/01/18 08:28:17;;;;;;;55.17;25.90;;;;;;;;;;5025078;28;20280;-76
2023/01/18 08:30:44;;;;;;;53.67;25.23;;;;;;;;;;5048599;28;20288;-76
2023/01/18 08:33:10;;;;;;;52.37;24.13;;;;;;;;;;5047911;28;20276;-75
2023/01/18 08:35:43;;;;;;;55.57;23.80;;;;;;;;;;5047004;28;20280;-76
2023/01/18 08:38:10;;;;;;;57.57;27.20;;;;;;;;;;5047827;28;20279;-76
2023/01/18 08:40:36;;;;;;;60.33;24.80;;;;;;;;;;5047428;28;20303;-76
2023/01/18 08:43:06;;;;;;;57.53;26.27;;;;;;;;;;5014327;28;20381;-75
2023/01/18 08:45:33;;;;;;;56.00;26.43;;;;;;;;;;5026029;28;20312;-76
2023/01/18 08:48:01;;;;;;;58.07;27.07;;;;;;;;;;5027688;28;20357;-76
2023/01/18 08:50:27;;;;;;;54.93;27.50;;;;;;;;;;5043596;28;20419;-75
2023/01/18 08:52:58;;;;;;;61.17;28.20;;;;;;;;;;5043234;28;20272;-75
2023/01/18 08:55:25;;;;;;;62.43;30.03;;;;;;;;;;5033236;28;20272;-76
2023/01/18 08:57:53;;;;;;;67.13;27.90;;;;;;;;;;5032190;28;20358;-74
2023/01/18 09:00:22;;;;;;;71.90;32.10;;;;;;;;;;5051315;28;20272;-76
2023/01/18 09:02:48;;;;;;;63.90;30.13;;;;;;;;;;5046951;28;20314;-76
2023/01/18 09:05:14;;;;;;;71.17;31.00;;;;;;;;;;5048073;28;20272;-76
2023/01/18 09:07:44;;;;;;;74.43;33.60;;;;;;;;;;5047669;28;20304;-76
2023/01/18 09:10:12;;;;;;;73.27;30.80;;;;;;;;;;5031163;28;20350;-76
2023/01/18 09:12:38;;;;;;;67.80;32.00;;;;;;;;;;5050649;28;20300;-76
2023/01/18 09:15:05;;;;;;;73.73;32.23;;;;;;;;;;5046296;28;20355;-76
2023/01/18 09:17:31;;;;;;;65.10;30.60;;;;;;;;;;5032980;28;20322;-76
2023/01/18 09:19:59;;;;;;;61.07;30.20;;;;;;;;;;5044825;28;20294;-76
2023/01/18 09:22:25;;;;;;;56.53;30.10;;;;;;;;;;5047139;28;20636;-76
2023/01/18 09:24:51;;;;;;;69.50;30.97;;;;;;;;;;5028626;28;20276;-76
2023/01/18 09:27:17;;;;;;;60.10;29.67;;;;;;;;;;5047771;28;20807;-75
2023/01/18 09:29:50;;;;;;;68.13;31.57;;;;;;;;;;5047909;28;20320;-75
2023/01/18 09:32:16;;;;;;;63.53;31.27;;;;;;;;;;5046480;28;20280;-75
2023/01/18 09:34:49;;;;;;;67.43;30.27;;;;;;;;;;5026233;28;21861;-77
2023/01/18 09:37:15;;;;;;;64.07;30.00;;;;;;;;;;5040509;28;20036;-76
2023/01/18 09:39:43;;;;;;;66.60;31.90;;;;;;;;;;5046978;28;20116;-75
2023/01/18 09:42:16;;;;;;;62.30;28.83;;;;;;;;;;5026574;28;20033;-77
2023/01/18 09:44:44;;;;;;;67.10;28.63;;;;;;;;;;5043593;28;20279;-76
2023/01/18 09:47:12;;;;;;;63.40;30.10;;;;;;;;;;5048187;28;20400;-76
2023/01/18 09:49:53;;;;;;;64.60;30.63;;;;;;;;;;5030307;28;20290;-77
2023/01/18 09:52:28;;;;;;;69.40;32.10;;;;;;;;;;5031566;28;21180;-76
2023/01/18 09:55:03;;;;;;;65.90;30.20;;;;;;;;;;5046950;28;20283;-76
2023/01/18 09:57:32;;;;;;;59.40;29.60;;;;;;;;;;5043067;28;21239;-77
2023/01/18 09:59:59;;;;;;;72.40;30.87;;;;;;;;;;5047832;28;20280;-76
2023/01/18 10:02:28;;;;;;;59.73;29.83;;;;;;;;;;5046635;28;20377;-75
2023/01/18 10:04:56;;;;;;;61.17;30.67;;;;;;;;;;5041098;28;20300;-76
2023/01/18 10:07:25;;;;;;;58.70;29.07;;;;;;;;;;5046743;28;20283;-76
2023/01/18 10:09:52;;;;;;;64.73;29.63;;;;;;;;;;5039964;28;20287;-75
2023/01/18 10:12:34;;;;;;;64.97;29.33;;;;;;;;;;5047011;28;20302;-76
2023/01/18 10:15:12;;;;;;;67.90;30.43;;;;;;;;;;5047009;28;20274;-77
2023/01/18 10:17:44;;;;;;;55.03;28.67;;;;;;;;;;5043063;28;20280;-76
2023/01/18 10:20:20;;;;;;;57.63;29.10;;;;;;;;;;5047769;28;20351;-77
2023/01/18 10:22:52;;;;;;;56.83;28.53;;;;;;;;;;5030860;28;20036;-77
2023/01/18 10:25:24;;;;;;;64.07;28.75;;;;;;;;;;5029002;28;20358;-75
2023/01/18 10:28:11;;;;;;;54.93;29.37;;;;;;;;;;5030265;28;20033;-76
2023/01/18 10:30:54;;;;;;;54.23;26.63;;;;;;;;;;5047041;28;20025;-76
2023/01/18 10:33:22;;;;;;;69.07;29.67;;;;;;;;;;5041631;28;20350;-76
2023/01/18 10:35:50;;;;;;;55.97;29.63;;;;;;;;;;5030079;28;20029;-76
2023/01/18 10:38:19;;;;;;;58.93;29.27;;;;;;;;;;5045203;28;20272;-75
2023/01/18 10:40:55;;;;;;;55.90;29.10;;;;;;;;;;5042796;28;20851;-76
2023/01/18 10:43:24;;;;;;;52.60;27.80;;;;;;;;;;5026061;28;20268;-77
2023/01/18 10:45:52;;;;;;;49.50;26.10;;;;;;;;;;5040476;28;20310;-78
2023/01/18 10:48:17;;;;;;;54.90;27.43;;;;;;;;;;5025570;28;20604;-75
2023/01/18 10:50:46;;;;;;;55.50;29.53;;;;;;;;;;5046031;28;20295;-76
2023/01/18 10:53:31;;;;;;;54.37;26.73;;;;;;;;;;5046049;28;20021;-77
2023/01/18 10:56:26;;;;;;;48.67;26.03;;;;;;;;;;5041058;28;20330;-75
2023/01/18 10:58:59;;;;;;;49.93;26.70;;;;;;;;;;5041302;28;20652;-75
2023/01/18 11:01:33;;;;;;;51.60;26.43;;;;;;;;;;5041985;28;20290;-75
2023/01/18 11:04:05;;;;;;;51.03;26.30;;;;;;;;;;5040809;28;20307;-74
2023/01/18 11:06:43;;;;;;;52.67;25.53;;;;;;;;;;5024067;28;20283;-76
2023/01/18 11:09:29;;;;;;;52.80;25.57;;;;;;;;;;5028211;28;20371;-75
2023/01/18 11:14:56;;;;;;;49.63;26.60;;;;;;;;;;5029413;28;20625;-77
2023/01/18 11:17:22;;;;;;;46.63;24.63;;;;;;;;;;5040296;28;20264;-76
2023/01/18 11:20:04;;;;;;;44.93;25.07;;;;;;;;;;5040933;28;20402;-75
2023/01/18 11:22:32;;;;;;;41.93;22.53;;;;;;;;;;5030296;28;20033;-77
2023/01/18 11:24:58;;;;;;;44.63;21.10;;;;;;;;;;5030003;28;20284;-77
2023/01/18 11:27:24;;;;;;;51.33;22.77;;;;;;;;;;5027360;28;20276;-77
2023/01/18 11:29:51;;;;;;;33.67;19.37;;;;;;;;;;5030720;28;20288;-76
2023/01/18 11:32:24;;;;;;;48.43;19.67;;;;;;;;;;5039272;28;20280;-77
2023/01/18 11:34:58;;;;;;;37.13;20.23;;;;;;;;;;5047280;28;20286;-77
2023/01/18 11:37:39;;;;;;;31.47;17.67;;;;;;;;;;5030568;28;20307;-76
2023/01/18 11:40:27;;;;;;;33.13;17.17;;;;;;;;;;5041033;28;20379;-77
2023/01/18 11:42:57;;;;;;;37.03;17.83;;;;;;;;;;5024364;28;20280;-75
2023/01/18 11:45:26;;;;;;;31.13;16.90;;;;;;;;;;5045367;28;21978;-78
2023/01/18 11:48:09;;;;;;;28.70;15.93;;;;;;;;;;5047702;28;20307;-76
2023/01/18 11:50:42;;;;;;;31.02;16.38;;;;;;;;;;5024815;28;20826;-76
2023/01/18 11:53:07;;;;;;;;;;;;;;;;;;5040136;28;20025;-75
2023/01/18 11:55:40;;;;;;;27.17;14.23;;;;;;;;;;5032333;28;19940;-75
2023/01/18 11:58:27;;;;;;;28.58;15.63;;;;;;;;;;5046114;28;20033;-76
2023/01/18 12:01:08;;;;;;;29.03;15.87;;;;;;;;;;5045217;28;20053;-76
2023/01/18 12:03:47;;;;;;;32.37;17.37;;;;;;;;;;5030369;28;20283;-76
2023/01/18 12:06:21;;;;;;;31.90;15.50;;;;;;;;;;5049040;28;20362;-76
2023/01/18 12:08:47;;;;;;;29.23;14.70;;;;;;;;;;5024199;28;20283;-75
2023/01/18 12:11:39;;;;;;;31.27;16.00;;;;;;;;;;5041892;28;20291;-76
2023/01/18 12:14:24;;;;;;;26.95;13.57;;;;;;;;;;5030385;28;20457;-76
2023/01/18 12:16:59;;;;;;;25.10;13.53;;;;;;;;;;5045676;28;20044;-76
2023/01/18 12:19:44;;;;;;;23.00;12.77;;;;;;;;;;5030177;28;20327;-77
2023/01/18 12:22:13;;;;;;;27.87;11.30;;;;;;;;;;5045723;28;20284;-77
2023/01/18 12:24:58;;;;;;;18.53;11.23;;;;;;;;;;5028585;28;20284;-75
2023/01/18 12:27:36;;;;;;;18.53;10.40;;;;;;;;;;5030623;28;20280;-76
2023/01/18 12:30:21;;;;;;;23.00;11.03;;;;;;;;;;5029622;28;20284;-77
2023/01/18 12:32:54;;;;;;;19.33;11.13;;;;;;;;;;5046613;28;20367;-77
2023/01/18 12:35:36;;;;;;;19.03;11.13;;;;;;;;;;5044722;28;21112;-77
2023/01/18 12:38:21;;;;;;;21.77;10.60;;;;;;;;;;5021551;28;20303;-76
2023/01/18 12:41:06;;;;;;;19.00;11.50;;;;;;;;;;5045184;28;20466;-76
2023/01/18 12:43:44;;;;;;;24.97;10.47;;;;;;;;;;5030360;28;20306;-77
2023/01/18 12:46:13;;;;;;;21.57;10.90;;;;;;;;;;5036781;28;20334;-76
2023/01/18 12:48:42;;;;;;;16.77;8.57;;;;;;;;;;5029457;28;20345;-76
2023/01/18 12:51:11;;;;;;;18.60;7.83;;;;;;;;;;5046645;28;20299;-76
2023/01/18 12:53:39;;;;;;;16.33;7.07;;;;;;;;;;5049503;28;20724;-76
2023/01/18 12:56:16;;;;;;;18.37;7.10;;;;;;;;;;5028001;28;20268;-76
2023/01/18 12:58:42;;;;;;;18.07;7.30;;;;;;;;;;5026852;28;20272;-77
2023/01/18 13:01:11;;;;;;;18.40;7.30;;;;;;;;;;5033314;28;20295;-78
2023/01/18 13:03:44;;;;;;;15.10;6.23;;;;;;;;;;5034092;28;20280;-77
2023/01/18 13:06:10;;;;;;;17.60;7.13;;;;;;;;;;5043924;28;20272;-76
2023/01/18 13:08:40;;;;;;;9.63;5.63;;;;;;;;;;5048077;28;20280;-78
2023/01/18 13:11:17;;;;;;;15.17;7.60;;;;;;;;;;5033429;28;20288;-76
2023/01/18 13:13:44;;;;;;;13.60;6.20;;;;;;;;;;5032639;28;20276;-77
2023/01/18 13:16:10;;;;;;;11.87;5.67;;;;;;;;;;5042335;28;20338;-77
2023/01/18 13:18:39;;;;;;;14.17;5.90;;;;;;;;;;5042795;28;20280;-76
2023/01/18 13:21:11;;;;;;;15.50;5.73;;;;;;;;;;5027808;28;20125;-78
2023/01/18 13:23:52;;;;;;;13.38;5.30;;;;;;;;;;5032737;28;20037;-77
2023/01/18 13:26:23;;;;;;;11.60;6.07;;;;;;;;;;5033172;28;21756;-77
2023/01/18 13:29:05;;;;;;;11.97;5.53;;;;;;;;;;5048528;28;20041;-77
2023/01/18 13:31:31;;;;;;;11.77;5.87;;;;;;;;;;5042939;28;20026;-77
2023/01/18 13:33:59;;;;;;;10.37;5.30;;;;;;;;;;5029864;28;20049;-77
2023/01/18 13:36:25;;;;;;;11.50;5.00;;;;;;;;;;5026754;28;20029;-77
2023/01/18 13:38:53;;;;;;;8.00;5.03;;;;;;;;;;5041191;28;20018;-77
2023/01/18 13:41:24;;;;;;;10.00;5.17;;;;;;;;;;5048811;28;20035;-78
2023/01/18 13:43:50;;;;;;;11.10;5.30;;;;;;;;;;5029767;28;20087;-77
2023/01/18 13:46:19;;;;;;;12.20;5.93;;;;;;;;;;5029697;28;20377;-79
2023/01/18 13:48:49;;;;;;;11.90;4.70;;;;;;;;;;5026282;28;20087;-77
2023/01/18 13:51:33;;;;;;;13.53;5.17;;;;;;;;;;5047746;28;20036;-79
2023/01/18 13:53:59;;;;;;;9.23;4.53;;;;;;;;;;5048553;28;20044;-78
2023/01/18 13:56:29;;;;;;;8.93;5.07;;;;;;;;;;5031963;28;20025;-77
2023/01/18 13:59:16;;;;;;;9.47;5.30;;;;;;;;;;5047134;28;20030;-78
2023/01/18 14:01:44;;;;;;;10.37;5.07;;;;;;;;;;5026010;28;20022;-77
2023/01/18 14:04:22;;;;;;;13.83;4.87;;;;;;;;;;5033816;28;20449;-77
2023/01/18 14:06:49;;;;;;;8.33;5.00;;;;;;;;;;5032201;28;20040;-77
2023/01/18 14:09:17;;;;;;;7.70;5.07;;;;;;;;;;5030291;28;20480;-77
2023/01/18 14:11:53;;;;;;;12.90;5.20;;;;;;;;;;5041989;28;20036;-76
2023/01/18 14:14:19;;;;;;;12.57;5.00;;;;;;;;;;5043847;28;20113;-77
2023/01/18 14:16:55;;;;;;;12.77;5.03;;;;;;;;;;5047452;28;20057;-76
2023/01/18 14:19:22;;;;;;;10.90;5.30;;;;;;;;;;5025819;28;20087;-76
2023/01/18 14:22:07;;;;;;;10.17;5.70;;;;;;;;;;5032247;28;20053;-77
2023/01/18 14:24:43;;;;;;;13.77;5.57;;;;;;;;;;5047014;28;20037;-77
2023/01/18 14:27:14;;;;;;;10.50;5.77;;;;;;;;;;5034264;28;21731;-77
2023/01/18 14:29:45;;;;;;;13.07;6.60;;;;;;;;;;5041463;28;20033;-77
2023/01/18 14:32:15;;;;;;;11.17;6.30;;;;;;;;;;5045664;28;20052;-76
2023/01/18 14:34:42;;;;;;;10.17;5.50;;;;;;;;;;5030381;28;20041;-77
2023/01/18 14:37:27;;;;;;;13.10;5.73;;;;;;;;;;5031266;28;20052;-76
2023/01/18 14:40:12;;;;;;;11.13;5.00;;;;;;;;;;5040541;28;20033;-78
2023/01/18 14:42:41;;;;;;;12.63;5.40;;;;;;;;;;5047149;28;20025;-78
2023/01/18 14:45:17;;;;;;;10.67;5.87;;;;;;;;;;5046528;28;20120;-77
2023/01/18 14:47:46;;;;;;;16.07;6.67;;;;;;;;;;5030802;28;20044;-77
2023/01/18 14:50:14;;;;;;;9.77;5.27;;;;;;;;;;5026622;28;20029;-78
2023/01/18 14:52:42;;;;;;;10.67;6.03;;;;;;;;;;5024076;28;20057;-76
2023/01/18 14:55:27;;;;;;;9.80;5.57;;;;;;;;;;5033771;28;20037;-77
2023/01/18 14:58:00;;;;;;;11.40;5.87;;;;;;;;;;5048415;28;20461;-76
2023/01/18 15:00:26;;;;;;;16.50;6.03;;;;;;;;;;5039826;28;20033;-77
2023/01/18 15:02:52;;;;;;;12.50;6.50;;;;;;;;;;5046416;28;20032;-77
2023/01/18 15:05:20;;;;;;;10.53;6.10;;;;;;;;;;5031197;28;20033;-76
2023/01/18 15:07:48;;;;;;;13.43;6.70;;;;;;;;;;5046085;28;20025;-75